createdAt,value
2022-09-24T00:02:30.727Z,5.78
2022-09-24T00:05:40.169Z,2.60
2022-09-24T00:08:42.316Z,4.22
2022-09-24T00:11:45.938Z,2.90
2022-09-24T00:14:47.827Z,3.67
2022-09-24T00:17:49.580Z,2.97
2022-09-24T00:20:51.402Z,3.03
2022-09-24T00:23:56.195Z,2.67
2022-09-24T00:26:58.640Z,2.08
2022-09-24T00:30:00.414Z,3.22
2022-09-24T00:33:03.422Z,4.90
2022-09-24T00:36:05.865Z,3.55
2022-09-24T00:39:07.863Z,4.28
2022-09-24T00:42:10.380Z,3.15
2022-09-24T00:45:12.196Z,4.43
2022-09-24T00:48:14.540Z,4.95
2022-09-24T00:51:20.205Z,3.60
2022-09-24T00:54:28.906Z,2.85
2022-09-24T00:57:31.482Z,6.05
2022-09-24T01:00:34.156Z,5.60
2022-09-24T01:03:41.297Z,2.88
2022-09-24T01:06:43.649Z,2.78
2022-09-24T01:09:47.867Z,4.55
2022-09-24T01:12:59.706Z,3.35
2022-09-24T01:16:10.594Z,3.22
2022-09-24T01:19:45.282Z,3.30
2022-09-24T01:23:18.233Z,2.85
2022-09-24T01:26:48.018Z,4.35
2022-09-24T01:29:53.715Z,3.72
2022-09-24T01:32:58.532Z,5.35
2022-09-24T01:36:06.917Z,7.38
2022-09-24T01:39:09.332Z,3.13
2022-09-24T01:42:12.411Z,3.10
2022-09-24T01:45:14.828Z,4.03
2022-09-24T01:48:21.276Z,3.05
2022-09-24T01:51:34.787Z,4.20
2022-09-24T01:54:42.955Z,3.50
2022-09-24T01:57:57.590Z,5.03
2022-09-24T02:01:13.119Z,4.47
2022-09-24T02:04:18.761Z,4.80
2022-09-24T02:07:25.287Z,5.25
2022-09-24T02:10:31.075Z,2.58
2022-09-24T02:13:47.542Z,20.48
2022-09-24T02:16:50.117Z,5.38
2022-09-24T02:19:53.179Z,2.63
2022-09-24T02:22:57.674Z,4.38
2022-09-24T02:26:02.166Z,10.82
2022-09-24T02:29:06.009Z,2.88
2022-09-24T02:32:09.555Z,3.65
2022-09-24T02:35:13.013Z,3.70
2022-09-24T02:38:18.284Z,2.88
2022-09-24T02:41:24.181Z,5.32
2022-09-24T02:44:25.877Z,2.60
2022-09-24T02:47:29.202Z,2.50
2022-09-24T02:50:41.363Z,5.05
2022-09-24T02:53:43.260Z,1.80
2022-09-24T02:56:45.180Z,6.00
2022-09-24T02:59:47.482Z,2.80
2022-09-24T03:02:49.293Z,10.20
2022-09-24T03:05:53.315Z,10.23
2022-09-24T03:08:55.221Z,1.83
2022-09-24T03:12:00.682Z,2.33
2022-09-24T03:15:03.604Z,1.92
2022-09-24T03:18:15.612Z,1.95
2022-09-24T03:21:20.347Z,2.10
2022-09-24T03:24:22.453Z,3.08
2022-09-24T03:27:24.293Z,2.05
2022-09-24T03:30:44.643Z,2.40
2022-09-24T03:33:49.892Z,2.17
2022-09-24T03:36:51.787Z,3.92
2022-09-24T03:39:53.620Z,6.53
2022-09-24T03:42:56.053Z,10.05
2022-09-24T03:45:58.704Z,6.88
2022-09-24T03:49:00.601Z,1.35
2022-09-24T03:52:03.214Z,0.90
2022-09-24T03:55:09.222Z,2.10
2022-09-24T03:58:12.115Z,2.05
2022-09-24T04:01:14.784Z,1.15
2022-09-24T04:04:17.735Z,0.00
2022-09-24T04:07:19.630Z,0.20
2022-09-24T04:10:22.135Z,0.52
2022-09-24T04:13:24.197Z,0.05
2022-09-24T04:16:26.403Z,1.83
2022-09-24T04:19:29.627Z,0.32
2022-09-24T04:22:31.545Z,1.20
2022-09-24T04:25:36.909Z,0.10
2022-09-24T04:28:39.437Z,0.00
2022-09-24T04:31:41.418Z,0.32
2022-09-24T04:34:43.719Z,0.20
2022-09-24T04:37:46.586Z,0.10
2022-09-24T04:40:49.595Z,0.52
2022-09-24T04:43:51.528Z,0.17
2022-09-24T04:46:53.661Z,0.20
2022-09-24T04:49:55.933Z,0.35
2022-09-24T04:52:58.065Z,0.28
2022-09-24T04:56:00.414Z,0.75
2022-09-24T04:59:02.575Z,1.02
2022-09-24T05:02:09.648Z,0.10
2022-09-24T05:05:12.697Z,0.15
2022-09-24T05:08:15.822Z,0.52
2022-09-24T05:11:19.494Z,0.93
2022-09-24T05:14:21.206Z,0.20
2022-09-24T05:17:23.307Z,0.25
2022-09-24T05:20:25.877Z,0.20
2022-09-24T05:23:28.267Z,0.47
2022-09-24T05:26:48.812Z,0.25
2022-09-24T05:29:51.421Z,1.02
2022-09-24T05:32:53.673Z,0.63
2022-09-24T05:35:56.684Z,0.50
2022-09-24T05:38:59.238Z,1.20
2022-09-24T05:42:04.525Z,0.32
2022-09-24T05:45:07.263Z,1.30
2022-09-24T05:48:09.209Z,1.10
2022-09-24T05:51:11.469Z,0.70
2022-09-24T05:54:14.053Z,1.75
2022-09-24T05:57:16.828Z,0.00
2022-09-24T06:00:19.681Z,0.30
2022-09-24T06:03:21.749Z,0.47
2022-09-24T06:06:27.568Z,1.02
2022-09-24T06:09:29.453Z,0.68
2022-09-24T06:12:35.096Z,0.47
2022-09-24T06:15:38.717Z,0.13
2022-09-24T06:18:43.077Z,0.30
2022-09-24T06:21:45.370Z,0.40
2022-09-24T06:24:47.679Z,0.28
2022-09-24T06:28:02.747Z,3.30
2022-09-24T06:31:06.291Z,0.10
2022-09-24T06:34:09.246Z,0.03
2022-09-24T06:37:11.541Z,0.40
2022-09-24T06:40:14.939Z,0.95
2022-09-24T06:43:18.302Z,0.40
2022-09-24T06:46:20.577Z,3.13
2022-09-24T06:49:23.464Z,1.88
2022-09-24T06:52:25.576Z,2.30
2022-09-24T06:55:27.946Z,0.70
2022-09-24T06:58:30.197Z,1.98
2022-09-24T07:01:32.364Z,2.38
2022-09-24T07:04:37.538Z,0.77
2022-09-24T07:07:39.738Z,2.70
2022-09-24T07:10:44.005Z,2.83
2022-09-24T07:13:46.079Z,1.20
2022-09-24T07:16:49.349Z,2.70
2022-09-24T07:19:51.931Z,1.08
2022-09-24T07:22:55.473Z,0.60
2022-09-24T07:25:58.138Z,0.45
2022-09-24T07:29:00.042Z,1.67
2022-09-24T07:32:03.886Z,0.50
2022-09-24T07:35:06.788Z,0.25
2022-09-24T07:38:12.441Z,0.43
2022-09-24T07:41:14.750Z,0.50
2022-09-24T07:44:18.307Z,1.05
2022-09-24T07:47:20.112Z,1.23
2022-09-24T07:50:22.470Z,0.00
2022-09-24T07:53:24.680Z,0.98
2022-09-24T07:56:26.846Z,0.10
2022-09-24T07:59:30.802Z,1.17
2022-09-24T08:02:32.724Z,0.40
2022-09-24T08:05:35.725Z,1.10
2022-09-24T08:08:39.151Z,1.20
2022-09-24T08:11:41.481Z,1.13
2022-09-24T08:14:45.017Z,0.55
2022-09-24T08:17:46.833Z,0.35
2022-09-24T08:20:50.002Z,0.35
2022-09-24T08:23:52.269Z,0.43
2022-09-24T08:26:54.774Z,1.75
2022-09-24T08:29:58.135Z,0.10
2022-09-24T08:33:00.064Z,0.30
2022-09-24T08:36:07.816Z,1.52
2022-09-24T08:39:10.962Z,1.02
2022-09-24T08:42:34.388Z,0.32
2022-09-24T08:46:03.441Z,6.97
2022-09-24T08:49:07.036Z,1.70
2022-09-24T08:52:23.860Z,1.15
2022-09-24T08:55:38.807Z,0.77
2022-09-24T08:59:01.901Z,0.40
2022-09-24T09:02:42.248Z,0.43
2022-09-24T09:05:53.658Z,0.20
2022-09-24T09:09:09.871Z,0.85
2022-09-24T09:12:18.615Z,1.35
2022-09-24T09:15:26.123Z,4.90
2022-09-24T09:18:38.578Z,0.38
2022-09-24T09:21:43.536Z,1.10
2022-09-24T09:24:50.031Z,0.52
2022-09-24T09:28:05.244Z,0.30
2022-09-24T09:31:40.186Z,0.63
2022-09-24T09:38:23.974Z,0.75
2022-09-24T09:41:38.076Z,0.63
2022-09-24T09:44:42.225Z,0.50
2022-09-24T09:47:50.989Z,0.43
2022-09-24T09:51:06.342Z,1.25
2022-09-24T09:54:09.315Z,0.55
2022-09-24T09:57:17.794Z,0.93
2022-09-24T10:00:38.284Z,0.55
2022-09-24T10:03:52.688Z,0.93
2022-09-24T10:07:05.420Z,0.40
2022-09-24T10:10:26.020Z,0.55
2022-09-24T10:13:28.102Z,0.20
2022-09-24T10:16:31.069Z,0.22
2022-09-24T10:19:36.438Z,0.30
2022-09-24T10:22:39.064Z,0.47
2022-09-24T10:25:41.752Z,0.63
2022-09-24T10:29:08.574Z,1.70
2022-09-24T10:32:18.764Z,0.77
2022-09-24T10:35:27.056Z,0.80
2022-09-24T10:38:30.157Z,1.55
2022-09-24T10:41:32.860Z,0.40
2022-09-24T10:44:39.154Z,0.43
2022-09-24T10:47:45.539Z,0.40
2022-09-24T10:51:12.373Z,1.17
2022-09-24T10:54:43.435Z,1.40
2022-09-24T10:58:06.809Z,0.52
2022-09-24T11:01:39.553Z,0.45
2022-09-24T11:04:55.063Z,0.98
2022-09-24T11:08:30.934Z,0.85
2022-09-24T11:11:37.133Z,0.93
2022-09-24T11:14:56.044Z,1.58
2022-09-24T11:18:16.475Z,0.82
2022-09-24T11:21:37.703Z,1.33
2022-09-24T11:25:09.376Z,0.57
2022-09-24T11:28:26.318Z,0.70
2022-09-24T11:31:41.893Z,1.10
2022-09-24T11:34:53.123Z,0.50
2022-09-24T11:38:19.783Z,0.82
2022-09-24T11:41:48.031Z,0.28
2022-09-24T11:45:00.385Z,1.10
2022-09-24T11:48:11.465Z,0.80
2022-09-24T11:51:39.407Z,0.55
2022-09-24T11:55:12.425Z,4.63
2022-09-24T11:58:24.493Z,0.85
2022-09-24T12:01:33.903Z,0.85
2022-09-24T12:04:51.311Z,0.30
2022-09-24T12:07:56.448Z,1.30
2022-09-24T12:11:04.120Z,0.40
2022-09-24T12:14:20.580Z,1.52
2022-09-24T12:17:32.357Z,1.55
2022-09-24T12:21:02.569Z,1.02
2022-09-24T12:24:11.696Z,0.35
2022-09-24T12:27:21.321Z,0.68
2022-09-24T12:31:03.120Z,1.10
2022-09-24T12:34:12.303Z,1.15
2022-09-24T12:37:17.798Z,0.82
2022-09-24T12:40:48.698Z,0.73
2022-09-24T12:44:18.331Z,0.77
2022-09-24T12:47:25.650Z,0.75
2022-09-24T12:50:31.251Z,0.77
2022-09-24T12:53:35.889Z,0.80
2022-09-24T12:56:38.548Z,0.75
2022-09-24T12:59:56.894Z,0.90
2022-09-24T13:03:01.442Z,0.50
2022-09-24T13:06:06.292Z,0.40
2022-09-24T13:09:46.912Z,0.52
2022-09-24T13:12:49.722Z,0.70
2022-09-24T13:16:06.425Z,0.50
2022-09-24T13:19:25.849Z,0.57
2022-09-24T13:22:34.797Z,0.30
2022-09-24T13:25:38.214Z,0.75
2022-09-24T13:28:51.450Z,0.50
2022-09-24T13:32:01.196Z,0.20
2022-09-24T13:35:08.194Z,1.40
2022-09-24T13:38:20.238Z,0.20
2022-09-24T13:41:40.993Z,0.60
2022-09-24T13:44:45.924Z,0.60
2022-09-24T13:47:52.234Z,1.23
2022-09-24T13:50:55.820Z,0.50
2022-09-24T13:54:19.758Z,0.50
2022-09-24T13:57:27.060Z,2.08
2022-09-24T14:00:32.875Z,1.42
2022-09-24T14:03:37.161Z,0.77
2022-09-24T14:06:42.052Z,0.63
2022-09-24T14:09:47.737Z,0.50
2022-09-24T14:13:12.785Z,0.85
2022-09-24T14:16:19.362Z,1.33
2022-09-24T14:19:22.717Z,0.90
2022-09-24T14:22:31.531Z,1.08
2022-09-24T14:25:36.663Z,0.95
2022-09-24T14:28:39.227Z,1.55
2022-09-24T14:31:51.316Z,2.70
2022-09-24T14:34:57.117Z,2.42
2022-09-24T14:38:12.155Z,0.75
2022-09-24T14:41:18.936Z,0.60
2022-09-24T14:44:23.859Z,1.85
2022-09-24T14:47:31.255Z,0.20
2022-09-24T14:50:38.725Z,0.40
2022-09-24T14:53:41.494Z,0.60
2022-09-24T14:56:43.802Z,0.25
2022-09-24T14:59:47.412Z,1.30
2022-09-24T15:02:52.677Z,2.65
2022-09-24T15:06:16.615Z,0.57
2022-09-24T15:09:31.957Z,0.95
2022-09-24T15:12:37.818Z,0.63
2022-09-24T15:15:40.172Z,0.60
2022-09-24T15:18:42.301Z,0.38
2022-09-24T15:21:45.563Z,1.08
2022-09-24T15:24:49.146Z,0.90
2022-09-24T15:27:54.799Z,2.33
2022-09-24T15:30:57.776Z,0.43
2022-09-24T15:33:59.958Z,2.22
2022-09-24T15:37:02.438Z,3.78
2022-09-24T15:40:13.129Z,1.95
2022-09-24T15:43:21.834Z,2.10
2022-09-24T15:46:26.774Z,5.45
2022-09-24T15:49:28.799Z,1.20
2022-09-24T15:52:33.818Z,1.83
2022-09-24T15:55:36.609Z,1.42
2022-09-24T15:58:39.005Z,1.38
2022-09-24T16:01:42.136Z,1.92
2022-09-24T16:04:44.519Z,1.00
2022-09-24T16:07:47.517Z,1.10
2022-09-24T16:10:50.079Z,1.48
2022-09-24T16:13:53.430Z,1.65
2022-09-24T16:16:56.208Z,2.08
2022-09-24T16:19:58.816Z,1.70
2022-09-24T16:23:01.416Z,2.33
2022-09-24T16:26:03.791Z,1.17
2022-09-24T16:29:07.250Z,1.48
2022-09-24T16:32:09.205Z,0.77
2022-09-24T16:35:14.167Z,0.85
2022-09-24T16:38:22.298Z,1.20
2022-09-24T16:41:25.967Z,0.30
2022-09-24T16:44:28.491Z,1.30
2022-09-24T16:47:34.650Z,1.02
2022-09-24T16:50:37.305Z,1.07
2022-09-24T16:53:41.429Z,1.70
2022-09-24T16:56:52.514Z,5.43
2022-09-24T16:59:54.513Z,1.38
2022-09-24T17:02:57.316Z,0.50
2022-09-24T17:05:59.551Z,0.77
2022-09-24T17:09:20.617Z,0.40
2022-09-24T17:12:22.837Z,0.60
2022-09-24T17:15:24.804Z,0.52
2022-09-24T17:18:27.884Z,0.50
2022-09-24T17:21:30.198Z,1.55
2022-09-24T17:24:33.567Z,0.77
2022-09-24T17:27:36.056Z,1.95
2022-09-24T17:30:39.299Z,1.95
2022-09-24T17:33:45.558Z,0.32
2022-09-24T17:36:48.310Z,1.45
2022-09-24T17:39:50.599Z,0.65
2022-09-24T17:42:53.244Z,7.57
2022-09-24T17:46:03.450Z,0.50
2022-09-24T17:49:06.430Z,0.50
2022-09-24T17:52:09.035Z,0.77
2022-09-24T17:55:14.614Z,1.92
2022-09-24T17:58:17.619Z,1.45
2022-09-24T18:01:25.264Z,1.77
2022-09-24T18:04:32.160Z,1.85
2022-09-24T18:07:34.753Z,2.65
2022-09-24T18:10:37.461Z,3.30
2022-09-24T18:13:39.937Z,2.65
2022-09-24T18:16:43.077Z,2.03
2022-09-24T18:19:46.039Z,6.85
2022-09-24T18:22:48.258Z,21.25
2022-09-24T18:25:53.582Z,40.20
2022-09-24T18:28:58.747Z,43.60
2022-09-24T18:32:02.252Z,17.30
2022-09-24T18:35:04.884Z,12.60
2022-09-24T18:38:09.239Z,11.90
2022-09-24T18:41:16.778Z,13.73
2022-09-24T18:44:20.119Z,16.13
2022-09-24T18:47:22.289Z,10.10
2022-09-24T18:50:26.673Z,1.50
2022-09-24T18:53:31.503Z,2.13
2022-09-24T18:56:34.218Z,1.27
2022-09-24T18:59:47.755Z,2.28
2022-09-24T19:02:50.093Z,3.35
2022-09-24T19:05:54.050Z,2.97
2022-09-24T19:08:56.520Z,1.80
2022-09-24T19:11:59.337Z,2.85
2022-09-24T19:15:02.023Z,2.03
2022-09-24T19:18:04.439Z,2.55
2022-09-24T19:21:08.645Z,2.05
2022-09-24T19:24:11.926Z,2.78
2022-09-24T19:27:14.505Z,4.03
2022-09-24T19:30:18.386Z,3.83
2022-09-24T19:33:21.502Z,6.43
2022-09-24T19:36:24.026Z,6.28
2022-09-24T19:39:27.092Z,4.85
2022-09-24T19:42:31.806Z,3.08
2022-09-24T19:45:34.099Z,2.97
2022-09-24T19:48:40.727Z,3.10
2022-09-24T19:51:43.703Z,3.33
2022-09-24T19:54:50.009Z,3.08
2022-09-24T19:57:53.054Z,2.27
2022-09-24T20:00:55.371Z,0.40
2022-09-24T20:03:59.556Z,0.75
2022-09-24T20:07:05.807Z,0.55
2022-09-24T20:10:10.498Z,0.63
2022-09-24T20:13:13.232Z,0.82
2022-09-24T20:16:19.898Z,0.95
2022-09-24T20:19:22.484Z,1.17
2022-09-24T20:22:26.631Z,0.68
2022-09-24T20:25:47.309Z,7.63
2022-09-24T20:28:49.997Z,2.05
2022-09-24T20:31:55.372Z,0.47
2022-09-24T20:35:01.513Z,2.03
2022-09-24T20:38:03.826Z,3.73
2022-09-24T20:41:16.699Z,2.75
2022-09-24T20:44:19.471Z,0.60
2022-09-24T20:47:22.134Z,1.55
2022-09-24T20:50:24.858Z,0.85
2022-09-24T20:53:29.206Z,0.98
2022-09-24T20:56:31.796Z,0.95
2022-09-24T20:59:34.121Z,1.15
2022-09-24T21:02:41.562Z,1.35
2022-09-24T21:05:45.087Z,1.05
2022-09-24T21:08:48.072Z,1.65
2022-09-24T21:11:50.672Z,5.57
2022-09-24T21:14:52.930Z,1.00
2022-09-24T21:18:21.171Z,0.55
2022-09-24T21:21:20.850Z,7.97
2022-09-24T21:24:26.326Z,9.10
2022-09-24T21:27:30.394Z,5.15
2022-09-24T21:30:32.274Z,1.63
2022-09-24T21:33:35.665Z,1.33
2022-09-24T21:36:44.549Z,2.63
2022-09-24T21:39:47.352Z,2.03
2022-09-24T21:42:50.177Z,0.30
2022-09-24T21:45:55.320Z,0.75
2022-09-24T21:48:57.456Z,0.50
2022-09-24T21:51:59.888Z,1.95
2022-09-24T21:55:01.733Z,2.05
2022-09-24T21:58:03.831Z,0.70
2022-09-24T22:01:28.466Z,2.13
2022-09-24T22:04:32.823Z,0.95
2022-09-24T22:07:35.102Z,0.25
2022-09-24T22:10:37.552Z,1.42
2022-09-24T22:13:40.559Z,1.02
2022-09-24T22:16:42.605Z,0.60
2022-09-24T22:19:44.747Z,0.28
2022-09-24T22:22:46.590Z,1.42
2022-09-24T22:25:55.401Z,0.63
2022-09-24T22:28:57.580Z,0.52
2022-09-24T22:31:59.770Z,0.60
2022-09-24T22:35:20.266Z,0.93
2022-09-24T22:38:23.611Z,0.57
2022-09-24T22:41:31.320Z,0.40
2022-09-24T22:44:33.670Z,1.05
2022-09-24T22:47:35.657Z,2.92
2022-09-24T22:50:37.584Z,0.45
2022-09-24T22:53:41.271Z,1.23
2022-09-24T22:56:43.261Z,0.35
2022-09-24T22:59:46.194Z,1.35
2022-09-24T23:02:48.123Z,0.50
2022-09-24T23:05:51.683Z,1.90
2022-09-24T23:08:55.083Z,0.77
2022-09-24T23:11:56.848Z,1.58
2022-09-24T23:14:59.973Z,0.60
2022-09-24T23:18:01.970Z,1.65
2022-09-24T23:21:08.262Z,0.70
2022-09-24T23:24:20.066Z,0.50
2022-09-24T23:27:22.589Z,2.13
2022-09-24T23:30:24.829Z,0.52
2022-09-24T23:33:26.836Z,5.70
2022-09-24T23:36:31.565Z,4.22
2022-09-24T23:39:33.902Z,5.30
2022-09-24T23:42:35.676Z,0.52
2022-09-24T23:45:37.931Z,3.30
2022-09-24T23:48:40.092Z,1.95
2022-09-24T23:51:42.563Z,6.63
2022-09-24T23:54:44.764Z,2.20
2022-09-24T23:57:46.584Z,1.05
